sensor_id;sensor_type;location;lat;lon;timestamp;pressure;altitude;pressure_sealevel;temperature;humidity
13420;BME280;6781;58.440;15.470;2022-12-10T00:01:04;101143.91;;;-4.27;100.00
13420;BME280;6781;58.440;15.470;2022-12-10T00:03:31;101134.75;;;-4.41;100.00
13420;BME280;6781;58.440;15.470;2022-12-10T00:06:14;101126.22;;;-4.31;100.00
13420;BME280;6781;58.440;15.470;2022-12-10T00:08:45;101132.19;;;-4.37;100.00
13420;BME280;6781;58.440;15.470;2022-12-10T00:11:13;101128.78;;;-4.33;100.00
13420;BME280;6781;58.440;15.470;2022-12-10T00:13:41;101116.09;;;-4.30;100.00
13420;BME280;6781;58.440;15.470;2022-12-10T00:16:08;101118.59;;;-4.28;100.00
13420;BME280;6781;58.440;15.470;2022-12-10T00:18:50;101117.72;;;-4.24;100.00
13420;BME280;6781;58.440;15.470;2022-12-10T00:27:22;101105.84;;;-4.19;100.00
13420;BME280;6781;58.440;15.470;2022-12-10T00:29:49;101105.84;;;-4.19;100.00
13420;BME280;6781;58.440;15.470;2022-12-10T00:32:18;101105.06;;;-4.24;100.00
13420;BME280;6781;58.440;15.470;2022-12-10T00:34:45;101105.03;;;-4.21;100.00
13420;BME280;6781;58.440;15.470;2022-12-10T00:37:13;101099.13;;;-4.20;100.00
13420;BME280;6781;58.440;15.470;2022-12-10T00:39:39;101093.19;;;-4.19;100.00
13420;BME280;6781;58.440;15.470;2022-12-10T00:42:06;101090.66;;;-4.19;100.00
13420;BME280;6781;58.440;15.470;2022-12-10T00:44:35;101090.72;;;-4.25;100.00
13420;BME280;6781;58.440;15.470;2022-12-10T00:47:02;101087.38;;;-4.29;100.00
13420;BME280;6781;58.440;15.470;2022-12-10T00:49:28;101090.75;;;-4.28;100.00
13420;BME280;6781;58.440;15.470;2022-12-10T00:51:55;101093.31;;;-4.31;100.00
13420;BME280;6781;58.440;15.470;2022-12-10T00:54:22;101089.91;;;-4.27;100.00
13420;BME280;6781;58.440;15.470;2022-12-10T00:56:49;101098.28;;;-4.22;100.00
13420;BME280;6781;58.440;15.470;2022-12-10T00:59:16;101092.34;;;-4.18;100.00
13420;BME280;6781;58.440;15.470;2022-12-10T01:01:44;101093.28;;;-4.27;100.00
13420;BME280;6781;58.440;15.470;2022-12-10T01:04:12;101088.19;;;-4.23;100.00
13420;BME280;6781;58.440;15.470;2022-12-10T01:06:41;101081.44;;;-4.24;100.00
13420;BME280;6781;58.440;15.470;2022-12-10T01:09:09;101078.09;;;-4.27;100.00
13420;BME280;6781;58.440;15.470;2022-12-10T01:11:38;101074.03;;;-4.44;100.00
13420;BME280;6781;58.440;15.470;2022-12-10T01:14:05;101068.91;;;-4.35;100.00
13420;BME280;6781;58.440;15.470;2022-12-10T01:16:32;101080.63;;;-4.27;100.00
13420;BME280;6781;58.440;15.470;2022-12-10T01:19:00;101077.28;;;-4.30;100.00
13420;BME280;6781;58.440;15.470;2022-12-10T01:21:28;101078.03;;;-4.22;100.00
13420;BME280;6781;58.440;15.470;2022-12-10T01:23:55;101073.09;;;-4.34;100.00
13420;BME280;6781;58.440;15.470;2022-12-10T01:26:23;101063.00;;;-4.36;100.00
13420;BME280;6781;58.440;15.470;2022-12-10T01:28:50;101065.47;;;-4.31;100.00
13420;BME280;6781;58.440;15.470;2022-12-10T01:31:18;101058.72;;;-4.29;100.00
13420;BME280;6781;58.440;15.470;2022-12-10T01:33:45;101062.03;;;-4.24;100.00
13420;BME280;6781;58.440;15.470;2022-12-10T01:36:13;101065.47;;;-4.31;100.00
13420;BME280;6781;58.440;15.470;2022-12-10T01:38:41;101051.25;;;-4.41;100.00
13420;BME280;6781;58.440;15.470;2022-12-10T01:41:12;101054.63;;;-4.41;100.00
13420;BME280;6781;58.440;15.470;2022-12-10T01:43:50;101045.22;;;-4.31;100.00
13420;BME280;6781;58.440;15.470;2022-12-10T01:46:17;101044.44;;;-4.35;100.00
13420;BME280;6781;58.440;15.470;2022-12-10T01:48:44;101051.09;;;-4.28;100.00
13420;BME280;6781;58.440;15.470;2022-12-10T01:51:13;101047.75;;;-4.31;100.00
13420;BME280;6781;58.440;15.470;2022-12-10T01:53:40;101047.88;;;-4.42;100.00
13420;BME280;6781;58.440;15.470;2022-12-10T01:56:08;101054.53;;;-4.32;100.00
13420;BME280;6781;58.440;15.470;2022-12-10T01:58:35;101054.59;;;-4.38;100.00
13420;BME280;6781;58.440;15.470;2022-12-10T02:01:04;101057.00;;;-4.27;100.00
13420;BME280;6781;58.440;15.470;2022-12-10T02:03:35;101059.56;;;-4.30;100.00
13420;BME280;6781;58.440;15.470;2022-12-10T02:06:06;101063.72;;;-4.23;100.00
13420;BME280;6781;58.440;15.470;2022-12-10T02:08:38;101062.84;;;-4.20;100.00
13420;BME280;6781;58.440;15.470;2022-12-10T02:11:09;101063.72;;;-4.23;100.00
13420;BME280;6781;58.440;15.470;2022-12-10T02:13:42;101061.97;;;-4.18;100.00
13420;BME280;6781;58.440;15.470;2022-12-10T02:16:11;101061.94;;;-4.15;100.00
13420;BME280;6781;58.440;15.470;2022-12-10T02:18:41;101064.47;;;-4.16;100.00
13420;BME280;6781;58.440;15.470;2022-12-10T02:21:10;101061.06;;;-4.12;100.00
13420;BME280;6781;58.440;15.470;2022-12-10T02:23:41;101059.44;;;-4.18;100.00
13420;BME280;6781;58.440;15.470;2022-12-10T02:26:11;101057.75;;;-4.17;100.00
13420;BME280;6781;58.440;15.470;2022-12-10T02:28:39;101053.59;;;-4.23;100.00
13420;BME280;6781;58.440;15.470;2022-12-10T02:31:11;101051.94;;;-4.27;100.00
13420;BME280;6781;58.440;15.470;2022-12-10T02:33:41;101046.84;;;-4.24;100.00
13420;BME280;6781;58.440;15.470;2022-12-10T02:36:09;101054.38;;;-4.19;100.00
13420;BME280;6781;58.440;15.470;2022-12-10T02:38:37;101042.69;;;-4.31;100.00
13420;BME280;6781;58.440;15.470;2022-12-10T02:41:06;101025.94;;;-4.43;100.00
13420;BME280;6781;58.440;15.470;2022-12-10T02:43:34;101030.09;;;-4.34;100.00
13420;BME280;6781;58.440;15.470;2022-12-10T02:46:02;101026.69;;;-4.33;100.00
13420;BME280;6781;58.440;15.470;2022-12-10T02:48:31;101025.91;;;-4.38;100.00
13420;BME280;6781;58.440;15.470;2022-12-10T02:50:59;101025.22;;;-4.52;100.00
13420;BME280;6781;58.440;15.470;2022-12-10T02:53:26;101025.31;;;-4.62;100.00
13420;BME280;6781;58.440;15.470;2022-12-10T02:56:01;101031.03;;;-4.44;100.00
13420;BME280;6781;58.440;15.470;2022-12-10T02:58:33;101025.28;;;-4.59;100.00
13420;BME280;6781;58.440;15.470;2022-12-10T03:01:06;101018.53;;;-4.60;100.00
13420;BME280;6781;58.440;15.470;2022-12-10T03:03:40;101025.19;;;-4.49;100.00
13420;BME280;6781;58.440;15.470;2022-12-10T03:08:46;101019.41;;;-4.62;100.00
13420;BME280;6781;58.440;15.470;2022-12-10T03:11:15;101027.75;;;-4.52;100.00
13420;BME280;6781;58.440;15.470;2022-12-10T03:13:43;101030.25;;;-4.49;100.00
13420;BME280;6781;58.440;15.470;2022-12-10T03:16:14;101035.34;;;-4.52;100.00
13420;BME280;6781;58.440;15.470;2022-12-10T03:18:44;101033.69;;;-4.56;100.00
13420;BME280;6781;58.440;15.470;2022-12-10T03:21:12;101030.28;;;-4.52;100.00
13420;BME280;6781;58.440;15.470;2022-12-10T03:23:43;101017.09;;;-4.85;100.00
13420;BME280;6781;58.440;15.470;2022-12-10T03:26:12;101022.97;;;-4.81;100.00
13420;BME280;6781;58.440;15.470;2022-12-10T03:28:40;101018.84;;;-4.92;100.00
13420;BME280;6781;58.440;15.470;2022-12-10T03:31:08;101022.13;;;-4.82;100.00
13420;BME280;6781;58.440;15.470;2022-12-10T03:33:37;101035.50;;;-4.71;100.00
13420;BME280;6781;58.440;15.470;2022-12-10T03:36:06;101035.47;;;-4.68;100.00
13420;BME280;6781;58.440;15.470;2022-12-10T03:38:34;101042.09;;;-4.54;100.00
13420;BME280;6781;58.440;15.470;2022-12-10T03:41:02;101046.25;;;-4.49;100.00
13420;BME280;6781;58.440;15.470;2022-12-10T03:43:29;101058.91;;;-4.47;100.00
13420;BME280;6781;58.440;15.470;2022-12-10T03:45:55;101048.88;;;-4.56;100.00
13420;BME280;6781;58.440;15.470;2022-12-10T03:48:22;101055.44;;;-4.40;100.00
13420;BME280;6781;58.440;15.470;2022-12-10T03:50:48;101063.75;;;-4.26;100.00
13420;BME280;6781;58.440;15.470;2022-12-10T03:53:17;101058.66;;;-4.23;100.00
13420;BME280;6781;58.440;15.470;2022-12-10T03:55:43;101063.81;;;-4.32;100.00
13420;BME280;6781;58.440;15.470;2022-12-10T03:58:10;101052.72;;;-4.20;100.00
13420;BME280;6781;58.440;15.470;2022-12-10T04:00:37;101052.72;;;-4.20;100.00
13420;BME280;6781;58.440;15.470;2022-12-10T04:03:04;101046.78;;;-4.18;100.00
13420;BME280;6781;58.440;15.470;2022-12-10T04:05:31;101051.84;;;-4.18;100.00
13420;BME280;6781;58.440;15.470;2022-12-10T04:07:57;101051.81;;;-4.16;100.00
13420;BME280;6781;58.440;15.470;2022-12-10T04:10:26;101044.25;;;-4.19;100.00
13420;BME280;6781;58.440;15.470;2022-12-10T04:12:52;101040.91;;;-4.21;100.00
13420;BME280;6781;58.440;15.470;2022-12-10T04:15:33;101046.75;;;-4.15;100.00
13420;BME280;6781;58.440;15.470;2022-12-10T04:18:16;101040.03;;;-4.19;100.00
13420;BME280;6781;58.440;15.470;2022-12-10T04:20:44;101048.41;;;-4.12;100.00
13420;BME280;6781;58.440;15.470;2022-12-10T04:23:28;101039.16;;;-4.15;100.00
13420;BME280;6781;58.440;15.470;2022-12-10T04:26:13;101049.16;;;-4.04;100.00
13420;BME280;6781;58.440;15.470;2022-12-10T04:28:57;101053.38;;;-4.03;100.00
13420;BME280;6781;58.440;15.470;2022-12-10T04:31:25;101044.94;;;-4.04;100.00
13420;BME280;6781;58.440;15.470;2022-12-10T04:33:51;101043.22;;;-4.02;100.00
13420;BME280;6781;58.440;15.470;2022-12-10T04:36:18;101039.91;;;-4.07;100.00
13420;BME280;6781;58.440;15.470;2022-12-10T04:38:45;101033.03;;;-3.97;100.00
13420;BME280;6781;58.440;15.470;2022-12-10T04:41:14;101033.00;;;-3.94;100.00
13420;BME280;6781;58.440;15.470;2022-12-10T04:43:41;101026.41;;;-4.09;100.00
13420;BME280;6781;58.440;15.470;2022-12-10T04:46:08;101014.97;;;-4.40;100.00
13420;BME280;6781;58.440;15.470;2022-12-10T04:48:35;101021.44;;;-4.15;100.00
13420;BME280;6781;58.440;15.470;2022-12-10T04:51:02;101018.00;;;-4.11;100.00
13420;BME280;6781;58.440;15.470;2022-12-10T04:53:29;101020.47;;;-4.05;100.00
13420;BME280;6781;58.440;15.470;2022-12-10T04:55:56;101021.53;;;-4.24;100.00
13420;BME280;6781;58.440;15.470;2022-12-10T04:58:24;101019.03;;;-4.27;100.00
13420;BME280;6781;58.440;15.470;2022-12-10T05:01:00;101014.91;;;-4.34;100.00
13420;BME280;6781;58.440;15.470;2022-12-10T05:03:26;101023.34;;;-4.35;100.00
13420;BME280;6781;58.440;15.470;2022-12-10T05:05:53;101028.28;;;-4.23;100.00
13420;BME280;6781;58.440;15.470;2022-12-10T05:08:19;101035.66;;;-4.05;100.00
13420;BME280;6781;58.440;15.470;2022-12-10T05:10:46;101028.03;;;-4.03;100.00
13420;BME280;6781;58.440;15.470;2022-12-10T05:13:13;101031.38;;;-4.00;100.00
13420;BME280;6781;58.440;15.470;2022-12-10T05:15:41;101021.34;;;-4.09;100.00
13420;BME280;6781;58.440;15.470;2022-12-10T05:18:08;101020.38;;;-3.97;100.00
13420;BME280;6781;58.440;15.470;2022-12-10T05:20:35;101027.09;;;-3.95;100.00
13420;BME280;6781;58.440;15.470;2022-12-10T05:23:01;101022.13;;;-4.02;100.00
13420;BME280;6781;58.440;15.470;2022-12-10T05:25:45;101015.41;;;-4.06;100.00
13420;BME280;6781;58.440;15.470;2022-12-10T05:28:19;101016.19;;;-4.01;100.00
13420;BME280;6781;58.440;15.470;2022-12-10T05:30:47;101012.81;;;-4.00;100.00
13420;BME280;6781;58.440;15.470;2022-12-10T05:33:13;101006.88;;;-3.99;100.00
13420;BME280;6781;58.440;15.470;2022-12-10T05:35:40;101003.53;;;-4.01;100.00
13420;BME280;6781;58.440;15.470;2022-12-10T05:38:07;100994.63;;;-4.31;100.00
13420;BME280;6781;58.440;15.470;2022-12-10T05:40:35;101002.78;;;-4.08;100.00
13420;BME280;6781;58.440;15.470;2022-12-10T05:43:02;101010.28;;;-4.02;100.00
13420;BME280;6781;58.440;15.470;2022-12-10T05:45:28;101011.03;;;-3.94;100.00
13420;BME280;6781;58.440;15.470;2022-12-10T05:47:57;101007.66;;;-3.92;100.00
13420;BME280;6781;58.440;15.470;2022-12-10T05:50:23;101006.94;;;-4.04;100.00
13420;BME280;6781;58.440;15.470;2022-12-10T05:52:50;101001.06;;;-4.07;100.00
13420;BME280;6781;58.440;15.470;2022-12-10T05:55:17;101001.78;;;-3.96;100.00
13420;BME280;6781;58.440;15.470;2022-12-10T05:57:44;100996.84;;;-4.05;100.00
13420;BME280;6781;58.440;15.470;2022-12-10T06:00:11;100992.03;;;-4.27;100.00
13420;BME280;6781;58.440;15.470;2022-12-10T06:02:38;101000.28;;;-4.12;100.00
13420;BME280;6781;58.440;15.470;2022-12-10T06:05:07;100997.81;;;-4.17;100.00
13420;BME280;6781;58.440;15.470;2022-12-10T06:07:34;100998.53;;;-4.06;100.00
13420;BME280;6781;58.440;15.470;2022-12-10T06:10:01;101001.34;;;-4.30;100.00
13420;BME280;6781;58.440;15.470;2022-12-10T06:12:28;101007.94;;;-4.17;100.00
13420;BME280;6781;58.440;15.470;2022-12-10T06:14:54;101014.53;;;-4.04;100.00
13420;BME280;6781;58.440;15.470;2022-12-10T06:17:21;101012.88;;;-4.05;100.00
13420;BME280;6781;58.440;15.470;2022-12-10T06:19:49;101008.75;;;-4.15;100.00
13420;BME280;6781;58.440;15.470;2022-12-10T06:22:17;101010.34;;;-4.05;100.00
13420;BME280;6781;58.440;15.470;2022-12-10T06:24:44;101011.16;;;-4.03;100.00
13420;BME280;6781;58.440;15.470;2022-12-10T06:27:11;101003.66;;;-4.10;100.00
13420;BME280;6781;58.440;15.470;2022-12-10T06:29:37;101012.94;;;-4.11;100.00
13420;BME280;6781;58.440;15.470;2022-12-10T06:32:06;101011.22;;;-4.09;100.00
13420;BME280;6781;58.440;15.470;2022-12-10T06:34:34;101014.53;;;-4.04;100.00
13420;BME280;6781;58.440;15.470;2022-12-10T06:37:00;101006.19;;;-4.12;100.00
13420;BME280;6781;58.440;15.470;2022-12-10T06:39:29;101000.28;;;-4.11;100.00
13420;BME280;6781;58.440;15.470;2022-12-10T06:41:55;101000.44;;;-4.23;100.00
13420;BME280;6781;58.440;15.470;2022-12-10T06:44:22;100999.56;;;-4.22;100.00
13420;BME280;6781;58.440;15.470;2022-12-10T06:46:49;100998.91;;;-4.38;100.00
13420;BME280;6781;58.440;15.470;2022-12-10T06:49:16;100991.38;;;-4.42;100.00
13420;BME280;6781;58.440;15.470;2022-12-10T06:51:43;100989.78;;;-4.52;100.00
13420;BME280;6781;58.440;15.470;2022-12-10T06:54:10;100993.06;;;-4.43;100.00
13420;BME280;6781;58.440;15.470;2022-12-10T06:56:38;100990.63;;;-4.52;100.00
13420;BME280;6781;58.440;15.470;2022-12-10T06:59:05;100983.09;;;-4.56;100.00
13420;BME280;6781;58.440;15.470;2022-12-10T07:01:32;100993.97;;;-4.48;100.00
13420;BME280;6781;58.440;15.470;2022-12-10T07:03:59;101006.56;;;-4.42;100.00
13420;BME280;6781;58.440;15.470;2022-12-10T07:06:26;101009.09;;;-4.44;100.00
13420;BME280;6781;58.440;15.470;2022-12-10T07:08:54;101023.44;;;-4.44;100.00
13420;BME280;6781;58.440;15.470;2022-12-10T07:11:22;101021.78;;;-4.48;100.00
13420;BME280;6781;58.440;15.470;2022-12-10T07:13:51;101014.44;;;-4.71;100.00
13420;BME280;6781;58.440;15.470;2022-12-10T07:16:18;101011.13;;;-4.79;100.00
13420;BME280;6781;58.440;15.470;2022-12-10T07:18:49;101010.38;;;-4.89;100.00
13420;BME280;6781;58.440;15.470;2022-12-10T07:21:16;101008.66;;;-4.84;100.00
13420;BME280;6781;58.440;15.470;2022-12-10T07:23:43;101011.84;;;-4.67;100.00
13420;BME280;6781;58.440;15.470;2022-12-10T07:26:10;101007.81;;;-4.83;100.00
13420;BME280;6781;58.440;15.470;2022-12-10T07:28:37;101014.53;;;-4.80;100.00
13420;BME280;6781;58.440;15.470;2022-12-10T07:31:06;101025.31;;;-4.62;100.00
13420;BME280;6781;58.440;15.470;2022-12-10T07:33:34;101016.25;;;-4.87;100.00
13420;BME280;6781;58.440;15.470;2022-12-10T07:36:02;101022.97;;;-4.83;100.00
13420;BME280;6781;58.440;15.470;2022-12-10T07:38:29;101012.00;;;-4.82;100.00
13420;BME280;6781;58.440;15.470;2022-12-10T07:40:56;101013.59;;;-4.73;100.00
13420;BME280;6781;58.440;15.470;2022-12-10T07:43:23;101008.72;;;-4.93;100.00
13420;BME280;6781;58.440;15.470;2022-12-10T07:45:49;101012.78;;;-4.75;100.00
13420;BME280;6781;58.440;15.470;2022-12-10T07:48:17;101030.44;;;-4.71;100.00
13420;BME280;6781;58.440;15.470;2022-12-10T07:50:44;101035.50;;;-4.71;100.00
13420;BME280;6781;58.440;15.470;2022-12-10T07:53:11;101034.72;;;-4.76;100.00
13420;BME280;6781;58.440;15.470;2022-12-10T07:55:37;101047.34;;;-4.76;100.00
13420;BME280;6781;58.440;15.470;2022-12-10T07:58:04;101049.06;;;-4.78;100.00
13420;BME280;6781;58.440;15.470;2022-12-10T08:00:31;101044.94;;;-4.89;100.00
13420;BME280;6781;58.440;15.470;2022-12-10T08:02:58;101052.50;;;-4.86;100.00
13420;BME280;6781;58.440;15.470;2022-12-10T08:05:26;101049.31;;;-5.08;100.00
13420;BME280;6781;58.440;15.470;2022-12-10T08:07:53;101045.81;;;-4.92;100.00
13420;BME280;6781;58.440;15.470;2022-12-10T08:10:20;101047.59;;;-5.06;100.00
13420;BME280;6781;58.440;15.470;2022-12-10T08:12:47;101048.38;;;-4.98;100.00
13420;BME280;6781;58.440;15.470;2022-12-10T08:15:14;101039.91;;;-4.93;100.00
13420;BME280;6781;58.440;15.470;2022-12-10T08:17:41;101039.91;;;-4.93;100.00
13420;BME280;6781;58.440;15.470;2022-12-10T08:20:08;101041.56;;;-4.87;100.00
13420;BME280;6781;58.440;15.470;2022-12-10T08:22:36;101052.53;;;-4.91;100.00
13420;BME280;6781;58.440;15.470;2022-12-10T08:25:04;100986.25;;;-5.20;100.00
13420;BME280;6781;58.440;15.470;2022-12-10T08:27:31;101057.44;;;-4.73;100.00
13420;BME280;6781;58.440;15.470;2022-12-10T08:29:58;101052.34;;;-4.70;100.00
13420;BME280;6781;58.440;15.470;2022-12-10T08:32:25;101055.09;;;-4.94;100.00
13420;BME280;6781;58.440;15.470;2022-12-10T08:34:52;101054.16;;;-4.81;100.00
13420;BME280;6781;58.440;15.470;2022-12-10T08:37:19;101059.13;;;-4.72;100.00
13420;BME280;6781;58.440;15.470;2022-12-10T08:39:48;101049.13;;;-4.87;100.00
13420;BME280;6781;58.440;15.470;2022-12-10T08:42:17;101043.25;;;-4.87;100.00
13420;BME280;6781;58.440;15.470;2022-12-10T08:44:44;101055.66;;;-4.62;100.00
13420;BME280;6781;58.440;15.470;2022-12-10T08:47:11;101056.44;;;-4.55;100.00
13420;BME280;6781;58.440;15.470;2022-12-10T08:49:37;101048.84;;;-4.53;100.00
13420;BME280;6781;58.440;15.470;2022-12-10T08:52:05;101048.88;;;-4.56;100.00
13420;BME280;6781;58.440;15.470;2022-12-10T08:54:32;101040.50;;;-4.65;100.00
13420;BME280;6781;58.440;15.470;2022-12-10T08:57:00;101042.91;;;-4.52;100.00
13420;BME280;6781;58.440;15.470;2022-12-10T08:59:27;101034.69;;;-4.74;100.00
13420;BME280;6781;58.440;15.470;2022-12-10T09:01:54;101026.06;;;-4.52;100.00
13420;BME280;6781;58.440;15.470;2022-12-10T09:04:21;101041.94;;;-4.39;100.00
13420;BME280;6781;58.440;15.470;2022-12-10T09:06:48;101038.56;;;-4.38;100.00
13420;BME280;6781;58.440;15.470;2022-12-10T09:09:15;101036.00;;;-4.37;100.00
13420;BME280;6781;58.440;15.470;2022-12-10T09:11:42;101033.28;;;-4.18;100.00
13420;BME280;6781;58.440;15.470;2022-12-10T09:14:12;101038.28;;;-4.12;100.00
13420;BME280;6781;58.440;15.470;2022-12-10T09:16:39;101038.38;;;-4.20;100.00
13420;BME280;6781;58.440;15.470;2022-12-10T09:19:07;101034.19;;;-4.24;100.00
13420;BME280;6781;58.440;15.470;2022-12-10T09:21:35;101033.25;;;-4.15;100.00
13420;BME280;6781;58.440;15.470;2022-12-10T09:24:02;101028.97;;;-4.10;100.00
13420;BME280;6781;58.440;15.470;2022-12-10T09:26:29;101033.16;;;-4.08;100.00
13420;BME280;6781;58.440;15.470;2022-12-10T09:28:56;101027.94;;;-3.96;100.00
13420;BME280;6781;58.440;15.470;2022-12-10T09:31:25;101031.34;;;-3.97;100.00
13420;BME280;6781;58.440;15.470;2022-12-10T09:33:53;101027.13;;;-3.98;100.00
13420;BME280;6781;58.440;15.470;2022-12-10T09:36:20;101019.41;;;-3.88;100.00
13420;BME280;6781;58.440;15.470;2022-12-10T09:38:48;101025.38;;;-3.92;100.00
13420;BME280;6781;58.440;15.470;2022-12-10T09:41:22;101016.06;;;-3.90;100.00
13420;BME280;6781;58.440;15.470;2022-12-10T09:43:55;101015.22;;;-3.91;100.00
13420;BME280;6781;58.440;15.470;2022-12-10T09:46:31;101007.50;;;-3.80;100.00
13420;BME280;6781;58.440;15.470;2022-12-10T09:49:05;100988.50;;;-4.15;100.00
13420;BME280;6781;58.440;15.470;2022-12-10T09:51:37;100989.03;;;-3.88;100.00
13420;BME280;6781;58.440;15.470;2022-12-10T09:54:08;100987.19;;;-3.77;100.00
13420;BME280;6781;58.440;15.470;2022-12-10T09:56:38;100984.03;;;-3.95;100.00
13420;BME280;6781;58.440;15.470;2022-12-10T09:59:10;100990.50;;;-3.72;100.00
13420;BME280;6781;58.440;15.470;2022-12-10T10:01:40;100986.25;;;-3.72;100.00
13420;BME280;6781;58.440;15.470;2022-12-10T10:04:08;100986.34;;;-3.78;100.00
13420;BME280;6781;58.440;15.470;2022-12-10T10:06:36;100984.59;;;-3.73;100.00
13420;BME280;6781;58.440;15.470;2022-12-10T10:09:06;100979.53;;;-3.73;100.00
13420;BME280;6781;58.440;15.470;2022-12-10T10:11:37;100985.25;;;-3.60;100.00
13420;BME280;6781;58.440;15.470;2022-12-10T10:14:05;100986.88;;;-3.56;100.00
13420;BME280;6781;58.440;15.470;2022-12-10T10:16:36;100984.22;;;-3.47;100.00
13420;BME280;6781;58.440;15.470;2022-12-10T10:19:19;100990.81;;;-3.38;100.00
13420;BME280;6781;58.440;15.470;2022-12-10T10:21:50;100982.38;;;-3.40;100.00
13420;BME280;6781;58.440;15.470;2022-12-10T10:24:19;100977.19;;;-3.33;100.00
13420;BME280;6781;58.440;15.470;2022-12-10T10:26:48;100973.72;;;-3.27;100.00
13420;BME280;6781;58.440;15.470;2022-12-10T10:29:16;100971.38;;;-3.38;100.00
13420;BME280;6781;58.440;15.470;2022-12-10T10:31:47;100967.03;;;-3.31;100.00
13420;BME280;6781;58.440;15.470;2022-12-10T10:34:54;100961.28;;;-3.41;100.00
13420;BME280;6781;58.440;15.470;2022-12-10T10:37:30;100962.94;;;-3.40;100.00
13420;BME280;6781;58.440;15.470;2022-12-10T10:40:05;100954.97;;;-3.69;100.00
13420;BME280;6781;58.440;15.470;2022-12-10T10:42:34;100953.00;;;-3.50;100.00
13420;BME280;6781;58.440;15.470;2022-12-10T10:48:06;100942.03;;;-3.51;100.00
13420;BME280;6781;58.440;15.470;2022-12-10T10:53:27;100938.50;;;-3.44;100.00
13420;BME280;6781;58.440;15.470;2022-12-10T10:55:54;100925.97;;;-3.50;100.00
13420;BME280;6781;58.440;15.470;2022-12-10T10:58:24;100927.31;;;-3.31;100.00
13420;BME280;6781;58.440;15.470;2022-12-10T11:01:12;100929.19;;;-3.42;100.00
13420;BME280;6781;58.440;15.470;2022-12-10T11:03:45;100934.47;;;-3.54;100.00
13420;BME280;6781;58.440;15.470;2022-12-10T11:06:29;100928.00;;;-3.73;100.00
13420;BME280;6781;58.440;15.470;2022-12-10T11:17:48;100930.91;;;-3.98;100.00
13420;BME280;6781;58.440;15.470;2022-12-10T11:20:20;100938.56;;;-4.04;100.00
13420;BME280;6781;58.440;15.470;2022-12-10T11:22:53;100943.59;;;-4.01;100.00
13420;BME280;6781;58.440;15.470;2022-12-10T11:25:25;100950.41;;;-4.06;100.00
13420;BME280;6781;58.440;15.470;2022-12-10T11:27:57;100957.16;;;-4.05;100.00
13420;BME280;6781;58.440;15.470;2022-12-10T11:30:28;100962.06;;;-3.92;100.00
13420;BME280;6781;58.440;15.470;2022-12-10T11:33:03;100969.69;;;-3.96;100.00
13420;BME280;6781;58.440;15.470;2022-12-10T11:35:39;100975.38;;;-3.78;100.00
13420;BME280;6781;58.440;15.470;2022-12-10T11:38:13;100969.59;;;-3.88;100.00
13420;BME280;6781;58.440;15.470;2022-12-10T11:40:48;100968.88;;;-3.98;100.00
13420;BME280;6781;58.440;15.470;2022-12-10T11:43:22;100967.44;;;-4.17;100.00
13420;BME280;6781;58.440;15.470;2022-12-10T11:46:10;100971.53;;;-4.07;100.00
13420;BME280;6781;58.440;15.470;2022-12-10T11:48:56;100975.66;;;-4.00;100.00
13420;BME280;6781;58.440;15.470;2022-12-10T11:51:30;100984.91;;;-3.97;100.00
13420;BME280;6781;58.440;15.470;2022-12-10T11:54:19;100973.19;;;-4.04;100.00
13420;BME280;6781;58.440;15.470;2022-12-10T11:56:52;100969.69;;;-3.96;100.00
13420;BME280;6781;58.440;15.470;2022-12-10T11:59:26;100979.78;;;-3.92;100.00
13420;BME280;6781;58.440;15.470;2022-12-10T12:01:59;100965.94;;;-4.32;100.00
13420;BME280;6781;58.440;15.470;2022-12-10T12:04:32;100963.53;;;-4.42;100.00
13420;BME280;6781;58.440;15.470;2022-12-10T12:09:54;100981.19;;;-4.36;100.00
13420;BME280;6781;58.440;15.470;2022-12-10T12:12:29;100989.56;;;-4.31;100.00
13420;BME280;6781;58.440;15.470;2022-12-10T12:14:59;100976.22;;;-4.47;100.00
13420;BME280;6781;58.440;15.470;2022-12-10T12:17:29;100986.09;;;-4.24;100.00
13420;BME280;6781;58.440;15.470;2022-12-10T12:20:02;100978.06;;;-4.61;100.00
13420;BME280;6781;58.440;15.470;2022-12-10T12:22:31;100992.78;;;-4.20;100.00
13420;BME280;6781;58.440;15.470;2022-12-10T12:25:00;100980.59;;;-4.61;100.00
13420;BME280;6781;58.440;15.470;2022-12-10T12:27:33;100999.56;;;-4.22;100.00
13420;BME280;6781;58.440;15.470;2022-12-10T12:30:12;101005.59;;;-4.32;100.00
13420;BME280;6781;58.440;15.470;2022-12-10T12:32:51;100997.41;;;-4.55;100.00
13420;BME280;6781;58.440;15.470;2022-12-10T12:35:23;100992.28;;;-4.49;100.00
13420;BME280;6781;58.440;15.470;2022-12-10T12:37:54;101009.75;;;-4.28;100.00
13420;BME280;6781;58.440;15.470;2022-12-10T12:40:35;101000.09;;;-4.71;100.00
13420;BME280;6781;58.440;15.470;2022-12-10T12:43:21;101011.03;;;-4.67;100.00
13420;BME280;6781;58.440;15.470;2022-12-10T12:45:49;101009.50;;;-4.86;100.00
13420;BME280;6781;58.440;15.470;2022-12-10T12:48:19;101025.31;;;-4.62;100.00
13420;BME280;6781;58.440;15.470;2022-12-10T12:50:53;101025.13;;;-4.43;100.00
13420;BME280;6781;58.440;15.470;2022-12-10T12:53:23;101037.06;;;-4.57;100.00
13420;BME280;6781;58.440;15.470;2022-12-10T12:56:04;101038.88;;;-4.69;100.00
13420;BME280;6781;58.440;15.470;2022-12-10T12:58:38;101037.16;;;-4.67;100.00
13420;BME280;6781;58.440;15.470;2022-12-10T13:01:30;101038.06;;;-4.75;100.00
13420;BME280;6781;58.440;15.470;2022-12-10T13:04:22;101052.16;;;-4.50;100.00
13420;BME280;6781;58.440;15.470;2022-12-10T13:12:31;101060.41;;;-4.31;100.00
13420;BME280;6781;58.440;15.470;2022-12-10T13:15:13;101076.19;;;-4.06;100.00
13420;BME280;6781;58.440;15.470;2022-12-10T13:20:34;101067.00;;;-4.15;100.00
13420;BME280;6781;58.440;15.470;2022-12-10T13:23:04;101060.19;;;-4.10;100.00
13420;BME280;6781;58.440;15.470;2022-12-10T13:25:42;101068.47;;;-3.97;100.00
13420;BME280;6781;58.440;15.470;2022-12-10T13:28:31;101064.56;;;-4.24;100.00